Tiempo atmosférico en la estación meteorológica de Fuente De Piedra, Málaga (423 m.)



Fecha
DESCASC
Temp. máxima en grados centígrados (hora)
DESCASC
Temp. mínima en grados centígrados (hora)
DESCASC
Temp. media en grados centígrados
DESCASC
Racha de viento máxima en m/sg (hora)
DESCASC
Velocidad máxima media en intervalos de 10 minutos(hora)
DESCASC
Precipitaciones diarias en mm
DESCASC
Precipitaciones de 00:00 a 06:00 en mm
DESCASC
Precipitaciones de 06:00 a 12:00 en mm
DESCASC
Precipitaciones de 12:00 a 18:00 en mm
DESCASC
Precipitaciones de 18:00 a 24:00 en mm
DESCASC
23-06-2019 31.6 (18:00) 15.3 (07:10) 23.5 9.17 (16:30) 5.56 (17:40) 0 0 0 0 0
22-06-2019 30.7 (17:40) 14.2 (05:10) 22.5 10.28 (12:10) 6.67 (10:10) 0 0 0 0 0
21-06-2019 29.6 (17:30) 13.5 (07:30) 21.6 7.78 (15:10) 4.72 (18:00) 0 0 0 0 0
20-06-2019 27.2 (17:50) 13.7 (00:00) 20.5 11.11 (17:00) 5.83 (19:40) 0 0 0 0 0
19-06-2019 28.8 (18:30) 14.8 (00:00) 21.8 8.06 (20:10) 5 (20:10) 0 0 0 0 0
18-06-2019 28.5 (16:40) 12.7 (00:00) 20.6 10.28 (18:20) 6.39 (19:00) 0 0 0 0 0
17-06-2019 31 (18:10) 10.3 (00:00) 20.7 10 (15:10) 6.11 (15:10) 0 0 0 0 0
16-06-2019 27.6 (15:20) 11.9 (00:00) 19.8 12.22 (16:00) 8.06 (16:00) 0 0 0 0 0
15-06-2019 28.1 (19:00) 9.4 (00:00) 18.8 7.78 (17:10) 4.17 (11:00) 0 0 0 0 0
14-06-2019 22.5 (16:30) 14.2 (00:00) 18.3 11.67 (16:50) 6.39 (13:00) 0 0 0 0 0
13-06-2019 27.4 (17:40) 13.9 (00:00) 20.6 10.83 (12:10) 7.22 (12:00) 0 0 0 0 0
12-06-2019 25.3 (16:20) 13.6 (00:00) 19.4 12.78 (10:20) 9.17 (11:50) 0 0 0 0 0
11-06-2019 26.8 (18:50) 10.6 (00:00) 18.7 11.11 (15:50) 6.67 (18:10) 0 0 0 0 0
10-06-2019 26.4 (17:40) 13.7 (00:00) 20 11.11 (21:50) 7.22 (21:20) 0 0 0 0 0
09-06-2019 26.6 (16:50) 15.9 (00:00) 21.3 11.11 (21:10) 8.06 (21:10) 0 0 0 0 0
08-06-2019 26.3 (14:30) 9.3 (00:00) 17.8 14.44 (15:20) 9.72 (16:50) 0 0 0 0 0
07-06-2019 25.4 (18:00) 13.6 (00:00) 19.5 7.5 (17:30) 4.44 (10:20) 0 0 0 0 0
06-06-2019 27.6 (16:10) 10 (00:00) 18.8 12.78 (20:00) 7.5 (18:50) 0 0 0 0 0
05-06-2019 23.6 (19:30) 13.4 (00:00) 18.5 11.39 (15:40) 7.22 (02:40) 0 0 0 0 0
04-06-2019 30.2 (16:00) 12.7 (00:00) 21.5 12.22 (18:40) 7.78 (19:10) 0 0 0 0 0
03-06-2019 32.7 (16:10) 13.1 (00:00) 22.9 9.72 (18:40) 6.94 (19:00) 0 0 0 0 0
02-06-2019 29.9 (16:20) 17.1 (00:00) 23.5 11.67 (02:50) 8.33 (17:40) 0 0 0 0 0
01-06-2019 26.5 (14:40) 14.7 (00:00) 20.6 15.28 (18:30) 10.28 (19:30) 0 0 0 0 0
31-05-2019 27.2 (17:20) 14.2 (00:00) 20.7 14.17 (14:20) 9.17 (17:50) 0 0 0 0 0
30-05-2019 24 (16:40) 15.1 (00:00) 19.6 14.72 (17:00) 10.56 (17:30) 0 0 0 0 0
29-05-2019 27.8 (17:10) 16.8 (00:00) 22.3 12.5 (12:00) 8.61 (12:30) 0 0 0 0 0
28-05-2019 33.2 (17:20) 15.6 (00:00) 24.4 8.33 (19:00) 4.44 (18:40) 0 0 0 0 0

Gráficas

Temp. máximas Temp. mínimas Temp. medias Precipitaciones Rachas de viento máximas Velocidades máximas media en intervalos de 10 minutos

Datos horarios

Fecha y hora oficial Temperatura (ºC) Velocidad del viento (km/h) Dirección del viento Racha (km/h) Dirección de racha Precipitación (mm) Presión (hPa) Tendencia (hPa) Humedad (%)
2019-06-26 23:00:00 25.2 10 Oeste 21 Oeste 0 -- -- 55
2019-06-26 22:00:00 27 11 Oeste 23 Noroeste 0 -- -- 49
2019-06-26 21:00:00 29.4 16 Noroeste 26 Noroeste 0 -- -- 45
2019-06-26 20:00:00 30.7 13 Noroeste 26 Noroeste 0 -- -- 41
2019-06-26 19:00:00 32.9 7 Oeste 22 Oeste 0 -- -- 35
2019-06-26 18:00:00 33.2 6 Oeste 12 Sudoeste 0 -- -- 33
2019-06-26 17:00:00 32.6 5 Sudoeste 12 Sudoeste 0 -- -- 32
2019-06-26 16:00:00 31.7 7 Oeste 15 Oeste 0 -- -- 34
2019-06-26 15:00:00 30.6 8 Oeste 23 Sur 0 -- -- 36
2019-06-26 14:00:00 30 6 Sudeste 17 Sudoeste 0 -- -- 36
2019-06-26 13:00:00 28.6 8 Sudoeste 20 Noroeste 0 -- -- 40
2019-06-26 12:00:00 26.9 10 Sur 19 Sudoeste 0 -- -- 44
2019-06-26 11:00:00 24.6 2 Este 12 Oeste 0 -- -- 53
2019-06-26 10:00:00 22.6 5 Sudoeste 10 Sudoeste 0 -- -- 59
2019-06-26 09:00:00 20.7 4 Noroeste 12 Norte 0 -- -- 68
2019-06-26 08:00:00 19.2 4 Norte 9 Norte 0 -- -- 73
2019-06-26 07:00:00 17.9 7 Norte 12 Norte 0 -- -- 72
2019-06-26 06:00:00 19 5 Norte 8 Oeste 0 -- -- 65
2019-06-26 05:00:00 20.3 2 Sur 18 Sur 0 -- -- 61
2019-06-26 04:00:00 21.1 12 Sudeste 23 Sudeste 0 -- -- 59
2019-06-26 03:00:00 21.7 14 Sur 28 Sur 0 -- -- 57
2019-06-26 02:00:00 22.8 4 Este 23 Sur 0 -- -- 52
2019-06-26 01:00:00 23.2 17 Sur 31 Sur 0 -- -- 55
2019-06-26 00:00:00 23.4 11 Sur 20 Sudoeste 0 -- -- 52
2019-06-25 23:00:00 25.6 17 Sudoeste 25 Sudoeste 0 -- -- 49
2019-06-25 22:00:00 27.2 17 Sudoeste 24 Sudoeste 0 -- -- 45
2019-06-25 21:00:00 30.4 13 Oeste 22 Oeste 0 -- -- 37
2019-06-25 20:00:00 31.9 17 Sur 26 Sudeste 0 -- -- 32
2019-06-25 19:00:00 33.4 14 Sur 25 Sur 0 -- -- 30
2019-06-25 18:00:00 34.1 14 Sur 29 Sur 0 -- -- 29
2019-06-25 17:00:00 34.2 13 Sudeste 27 Sur 0 -- -- 29
2019-06-25 16:00:00 33.6 9 Sudoeste 21 Oeste 0 -- -- 31
2019-06-25 15:00:00 31.8 6 Oeste 11 Sudoeste 0 -- -- 31
2019-06-25 14:00:00 30.3 4 Sudoeste 9 Sudoeste 0 -- -- 34
2019-06-25 13:00:00 28 6 Sudoeste 16 Sudoeste 0 -- -- 43
2019-06-25 12:00:00 26.4 8 Sudoeste 13 Sudoeste 0 -- -- 54
2019-06-25 11:00:00 24.7 6 Sudoeste 10 Noroeste 0 -- -- 57
2019-06-25 10:00:00 22.7 4 Noroeste 9 Noroeste 0 -- -- 64
2019-06-25 09:00:00 19.9 4 Norte 6 Norte 0 -- -- 75
2019-06-25 08:00:00 17.9 0 Calma 10 Sudeste 0 -- -- 80
2019-06-25 07:00:00 17.7 8 Sudeste 10 Este 0 -- -- 83
2019-06-25 06:00:00 18.3 5 Norte 9 Norte 0 -- -- 77
2019-06-25 05:00:00 18.7 9 Norte 13 Norte 0 -- -- 77
2019-06-25 04:00:00 19 6 Noroeste 11 Noroeste 0 -- -- 77
2019-06-25 03:00:00 19.1 5 Norte 11 Norte 0 -- -- 75
2019-06-25 02:00:00 20.2 4 Norte 8 Norte 0 -- -- 71
2019-06-25 01:00:00 21.3 0 Calma 4 Nordeste 0 -- -- 70
2019-06-25 00:00:00 22 4 Norte 7 Norte 0 -- -- 65
2019-06-24 23:00:00 23.6 4 Noroeste 13 Noroeste 0 -- -- 60
2019-06-24 22:00:00 24.7 7 Noroeste 22 Noroeste 0 -- -- 56
2019-06-24 21:00:00 26.4 16 Noroeste 25 Noroeste 0 -- -- 50
2019-06-24 20:00:00 28.2 17 Oeste 32 Oeste 0 -- -- 45
2019-06-24 19:00:00 30.3 18 Oeste 31 Noroeste 0 -- -- 39
2019-06-24 18:00:00 31.8 16 Oeste 31 Noroeste 0 -- -- 31
2019-06-24 17:00:00 32.3 11 Oeste 24 Oeste 0 -- -- 30
2019-06-24 16:00:00 31.2 10 Noroeste 25 Noroeste 0 -- -- 30
2019-06-24 15:00:00 30.4 8 Oeste 19 Oeste 0 -- -- 31
2019-06-24 14:00:00 29.2 9 Noroeste 19 Noroeste 0 -- -- 34
2019-06-24 13:00:00 28.6 5 Sudoeste 10 Oeste 0 -- -- 31
2019-06-24 12:00:00 26.5 5 Sudoeste 9 Oeste 0 -- -- 35
2019-06-24 11:00:00 23.8 7 Oeste 9 Oeste 0 -- -- 50
2019-06-24 10:00:00 21.8 3 Sudoeste 11 Oeste 0 -- -- 59
2019-06-24 09:00:00 20 3 Sudoeste 5 Oeste 0 -- -- 64
2019-06-24 08:00:00 17.5 2 Noroeste 5 Noroeste 0 -- -- 69
2019-06-24 07:00:00 17 0 Calma 6 Este 0 -- -- 69
2019-06-24 06:00:00 17.6 5 Sudoeste 8 Oeste 0 -- -- 69
2019-06-24 05:00:00 18.3 2 Norte 7 Oeste 0 -- -- 68
2019-06-24 04:00:00 19.8 4 Sudoeste 10 Sur 0 -- -- 62
2019-06-24 03:00:00 19.9 6 Sudoeste 13 Sudoeste 0 -- -- 64
2019-06-24 02:00:00 20.1 8 Sur 12 Sur 0 -- -- 63
2019-06-24 01:00:00 22.2 8 Sudoeste 19 Sudoeste 0 -- -- 58
2019-06-24 00:00:00 22.3 5 Oeste 13 Oeste 0 -- -- 56
2019-06-23 23:00:00 23.5 6 Sur 14 Sudoeste 0 -- -- 51
2019-06-23 22:00:00 24.9 9 Sur 21 Sur 0 -- -- 46
2019-06-23 21:00:00 26.6 17 Sur 26 Sur 0 -- -- 40
2019-06-23 20:00:00 29.3 18 Sur 28 Sudeste 0 -- -- 34
2019-06-23 19:00:00 30.6 19 Sur 28 Sur 0 -- -- 33
2019-06-23 18:00:00 31.6 15 Sur 30 Sudeste 0 -- -- 30
2019-06-23 17:00:00 31.4 18 Sur 33 Sudeste 0 -- -- 35
2019-06-23 16:00:00 30.6 14 Sur 27 Sudoeste 0 -- -- 41
2019-06-23 15:00:00 30.2 17 Sur 26 Sur 0 -- -- 36
2019-06-23 14:00:00 29.3 16 Sudoeste 31 Sudoeste 0 -- -- 42
2019-06-23 13:00:00 28.2 5 Sudoeste 18 Oeste 0 -- -- 43
2019-06-23 12:00:00 25.8 6 Sudoeste 10 Sudoeste 0 -- -- 50
2019-06-23 11:00:00 24.4 9 Sudoeste 12 Sudoeste 0 -- -- 57
2019-06-23 10:00:00 22.5 5 Oeste 9 Oeste 0 -- -- 61
2019-06-23 09:00:00 20.9 5 Sudeste 9 Sudeste 0 -- -- 67
2019-06-23 08:00:00 15.8 6 Noroeste 8 Noroeste 0 -- -- 79
2019-06-23 07:00:00 16 3 Oeste 6 Noroeste 0 -- -- 76
2019-06-23 06:00:00 16.9 0 Calma 7 Norte 0 -- -- 83
2019-06-23 05:00:00 17.3 0 Calma 5 Sur 0 -- -- 82
2019-06-23 04:00:00 18 4 Sur 5 Sur 0 -- -- 79
2019-06-23 03:00:00 18.9 0 Calma 13 Sudoeste 0 -- -- 76
2019-06-23 02:00:00 19.8 6 Oeste 25 Sudoeste 0 -- -- 74
2019-06-23 01:00:00 20.5 19 Sudoeste 24 Sudoeste 0 -- -- 74
2019-06-23 00:00:00 20.8 13 Sudoeste 24 Sur 0 -- -- 68
2019-06-22 23:00:00 22 9 Sur 32 Sur 0 -- -- 61
2019-06-22 22:00:00 23.8 15 Sur 24 Sur 0 -- -- 53
2019-06-22 21:00:00 26.6 17 Sur 32 Sur 0 -- -- 42
2019-06-22 20:00:00 28.8 23 Sur 32 Sur 0 -- -- 38
2019-06-22 19:00:00 30.3 19 Sur 31 Sur 0 -- -- 34
2019-06-22 18:00:00 30.5 18 Sur 29 Sur 0 -- -- 34
2019-06-22 17:00:00 30.5 15 Sur 30 Sudoeste 0 -- -- 35
2019-06-22 16:00:00 30.3 17 Sur 30 Sur 0 -- -- 35
2019-06-22 15:00:00 29.9 20 Sur 33 Sur 0 -- -- 36
2019-06-22 14:00:00 29 20 Sur 31 Sudeste 0 -- -- 37
2019-06-22 13:00:00 27.8 22 Sur 37 Sur 0 -- -- 40
2019-06-22 12:00:00 26.7 19 Sur 32 Sur 0 -- -- 44
2019-06-22 11:00:00 25.2 22 Sur 33 Sur 0 -- -- 44
2019-06-22 10:00:00 22.7 21 Sur 30 Sur 0 -- -- 53
2019-06-22 09:00:00 20.5 13 Sur 24 Sur 0 -- -- 60
2019-06-22 08:00:00 16.6 7 Sur 12 Sur 0 -- -- 67
2019-06-22 07:00:00 14.4 4 Sudoeste 9 Sudoeste 0 -- -- 64
2019-06-22 06:00:00 14.7 5 Sur 9 Sur 0 -- -- 66
2019-06-22 05:00:00 14.3 8 Sur 11 Sur 0 -- -- 63
2019-06-22 04:00:00 15.5 2 Oeste 7 Sur 0 -- -- 61
2019-06-22 03:00:00 17.2 0 Calma 7 Sudeste 0 -- -- 55
2019-06-22 02:00:00 18.9 5 Este 12 Este 0 -- -- 49
2019-06-22 01:00:00 19 2 Nordeste 10 Noroeste 0 -- -- 46
2019-06-22 00:00:00 21.3 3 Norte 7 Noroeste 0 -- -- 36
2019-06-21 23:00:00 22.6 0 Calma 9 Noroeste 0 -- -- 34
2019-06-21 22:00:00 25 8 Oeste 14 Noroeste 0 -- -- 30
2019-06-21 21:00:00 27.6 12 Noroeste 23 Oeste 0 -- -- 27
2019-06-21 20:00:00 29 12 Noroeste 24 Noroeste 0 -- -- 25
2019-06-21 19:00:00 29.4 15 Noroeste 27 Noroeste 0 -- -- 23
2019-06-21 18:00:00 29.4 17 Noroeste 26 Noroeste 0 -- -- 24
2019-06-21 17:00:00 29.4 12 Oeste 23 Noroeste 0 -- -- 22
2019-06-21 16:00:00 28.7 11 Noroeste 28 Oeste 0 -- -- 24
2019-06-21 15:00:00 27.8 13 Noroeste 25 Oeste 0 -- -- 27
2019-06-21 14:00:00 26.9 13 Noroeste 22 Noroeste 0 -- -- 33
2019-06-21 13:00:00 25.7 12 Oeste 22 Oeste 0 -- -- 38
2019-06-21 12:00:00 24.6 6 Noroeste 18 Noroeste 0 -- -- 44
2019-06-21 11:00:00 22.3 6 Norte 14 Nordeste 0 -- -- 48
2019-06-21 10:00:00 21 6 Norte 14 Norte 0 -- -- 53
2019-06-21 09:00:00 18.1 3 Norte 5 Noroeste 0 -- -- 64
2019-06-21 08:00:00 14.8 0 Calma 3 Nordeste 0 -- -- 71
2019-06-21 07:00:00 14.6 0 Calma 10 Noroeste 0 -- -- 74
2019-06-21 06:00:00 15.2 7 Norte 13 Norte 0 -- -- 72
2019-06-21 05:00:00 15.6 7 Noroeste 11 Noroeste 0 -- -- 70
2019-06-21 04:00:00 16.3 0 Calma 6 Noroeste 0 -- -- 63
2019-06-21 03:00:00 17.8 4 Noroeste 24 Oeste 0 -- -- 60
2019-06-21 02:00:00 18.4 3 Noroeste 21 Oeste 0 -- -- 59
2019-06-21 01:00:00 19.3 8 Sudoeste 14 Oeste 0 -- -- 60
2019-06-21 00:00:00 19.3 4 Oeste 22 Oeste 0 -- -- 60
2019-06-20 23:00:00 20.6 12 Oeste 26 Oeste 0 -- -- 57
2019-06-20 22:00:00 22.2 9 Noroeste 20 Oeste 0 -- -- 47
2019-06-20 21:00:00 24.5 15 Noroeste 24 Oeste 0 -- -- 41
2019-06-20 20:00:00 25.4 17 Oeste 33 Oeste 0 -- -- 41
2019-06-20 19:00:00 26.4 16 Oeste 31 Oeste 0 -- -- 37
2019-06-20 18:00:00 26.9 17 Oeste 30 Oeste 0 -- -- 35
2019-06-20 17:00:00 26.8 17 Oeste 40 Oeste 0 -- -- 38
2019-06-20 16:00:00 26.2 12 Noroeste 30 Oeste 0 -- -- 40
2019-06-20 15:00:00 25.7 17 Noroeste 28 Noroeste 0 -- -- 41
2019-06-20 14:00:00 24.6 12 Oeste 30 Noroeste 0 -- -- 46
2019-06-20 13:00:00 24 12 Noroeste 28 Oeste 0 -- -- 52
2019-06-20 12:00:00 22.5 11 Oeste 20 Oeste 0 -- -- 58
2019-06-20 11:00:00 21.6 5 Sudoeste 10 Sur 0 -- -- 61
2019-06-20 10:00:00 20.3 4 Nordeste 7 Nordeste 0 -- -- 63
2019-06-20 09:00:00 18.5 3 Nordeste 5 Nordeste 0 -- -- 69
2019-06-20 08:00:00 15.5 3 Este 6 Nordeste 0 -- -- 77
2019-06-20 07:00:00 13.7 4 Nordeste 7 Nordeste 0 -- -- 83
2019-06-20 06:00:00 13.8 4 Noroeste 5 Noroeste 0 -- -- 81
2019-06-20 05:00:00 14.6 2 Nordeste 8 Norte 0 -- -- 78
2019-06-20 04:00:00 15.9 3 Sudeste 15 Sudoeste 0 -- -- 77
2019-06-20 03:00:00 16.8 7 Oeste 16 Oeste 0 -- -- 76
2019-06-20 02:00:00 16.9 3 Nordeste 8 Norte 0 -- -- 77
2019-06-20 01:00:00 18.3 4 Norte 17 Oeste 0 -- -- 71
2019-06-20 00:00:00 19.4 4 Noroeste 26 Oeste 0 -- -- 66
2019-06-19 23:00:00 21.2 17 Noroeste 26 Oeste 0 -- -- 59
2019-06-19 22:00:00 23.5 17 Oeste 25 Noroeste 0 -- -- 51
2019-06-19 21:00:00 26.2 17 Noroeste 29 Oeste 0 -- -- 40
2019-06-19 20:00:00 27.9 15 Oeste 25 Noroeste 0 -- -- 33
2019-06-19 19:00:00 28.6 10 Noroeste 25 Noroeste 0 -- -- 32
2019-06-19 18:00:00 28.4 14 Noroeste 26 Noroeste 0 -- -- 32
2019-06-19 17:00:00 28 12 Noroeste 23 Norte 0 -- -- 35
2019-06-19 16:00:00 27.3 9 Noroeste 23 Noroeste 0 -- -- 37
2019-06-19 15:00:00 26.2 9 Oeste 24 Noroeste 0 -- -- 38
2019-06-19 14:00:00 24.7 8 Noroeste 17 Norte 0 -- -- 47
2019-06-19 13:00:00 23.3 9 Norte 18 Noroeste 0 -- -- 50
2019-06-19 12:00:00 20.5 7 Noroeste 14 Noroeste 0 -- -- 60
2019-06-19 11:00:00 18.9 6 Norte 24 Noroeste 0 -- -- 67
2019-06-19 10:00:00 17.8 8 Norte 15 Noroeste 0 -- -- 71
2019-06-19 09:00:00 16.9 5 Noroeste 12 Noroeste 0 -- -- 78
2019-06-19 08:00:00 16.5 3 Norte 13 Noroeste 0 -- -- 83
2019-06-19 07:00:00 15.8 6 Noroeste 17 Noroeste 0 -- -- 87
2019-06-19 06:00:00 15 7 Noroeste 12 Noroeste 0 -- -- 89
2019-06-19 05:00:00 15.2 4 Norte 6 Norte 0 -- -- 85
2019-06-19 04:00:00 15.4 2 Nordeste 5 Norte 0 -- -- 86
2019-06-19 03:00:00 15.6 4 Norte 6 Norte 0 -- -- 81
2019-06-19 02:00:00 16.4 4 Norte 8 Norte 0 -- -- 80
2019-06-19 01:00:00 17.2 3 Este 10 Noroeste 0 -- -- 77
2019-06-19 00:00:00 18.1 7 Noroeste 13 Oeste 0 -- -- 72
2019-06-18 23:00:00 19.3 9 Noroeste 16 Noroeste 0 -- -- 66
2019-06-18 22:00:00 21.4 8 Noroeste 25 Oeste 0 -- -- 57
2019-06-18 21:00:00 24.1 16 Oeste 35 Noroeste 0 -- -- 48
2019-06-18 20:00:00 26 19 Noroeste 33 Noroeste 0 -- -- 41
2019-06-18 19:00:00 26.9 23 Noroeste 37 Oeste 0 -- -- 35
2019-06-18 18:00:00 28.3 20 Noroeste 36 Noroeste 0 -- -- 28
2019-06-18 17:00:00 28.3 15 Noroeste 36 Noroeste 0 -- -- 30
2019-06-18 16:00:00 27.8 15 Noroeste 30 Noroeste 0 -- -- 36
2019-06-18 15:00:00 27 12 Noroeste 23 Noroeste 0 -- -- 38
2019-06-18 14:00:00 25.9 13 Noroeste 26 Oeste 0 -- -- 40
2019-06-18 13:00:00 25.1 12 Norte 21 Norte 0 -- -- 42
2019-06-18 12:00:00 24.3 9 Norte 17 Noroeste 0 -- -- 42
2019-06-18 11:00:00 22.3 6 Noroeste 12 Noroeste 0 -- -- 43
2019-06-18 10:00:00 20.4 6 Nordeste 11 Norte 0 -- -- 50
2019-06-18 09:00:00 18.1 8 Norte 12 Norte 0 -- -- 60
2019-06-18 08:00:00 14.8 0 Calma 5 Nordeste 0 -- -- 72
2019-06-18 07:00:00 13 3 Nordeste 8 Norte 0 -- -- 72
2019-06-18 06:00:00 14.6 4 Nordeste 8 Norte 0 -- -- 64
2019-06-18 05:00:00 14.9 3 Norte 5 Norte 0 -- -- 61
2019-06-18 04:00:00 15.1 0 Calma 5 Nordeste 0 -- -- 49
2019-06-18 03:00:00 16.9 5 Norte 15 Sur 0 -- -- 44
2019-06-18 02:00:00 19.6 5 Sur 13 Sur 0 -- -- 40
2019-06-18 01:00:00 20.4 8 Sudoeste 22 Sur 0 -- -- 39
2019-06-18 00:00:00 19.9 4 Sudoeste 14 Sudoeste 0 -- -- 41
2019-06-17 23:00:00 22.4 9 Sudoeste 25 Sur 0 -- -- 36
2019-06-17 22:00:00 23.7 14 Sur 25 Sur 0 -- -- 32
2019-06-17 21:00:00 26.7 19 Sur 30 Sur 0 -- -- 26
2019-06-17 20:00:00 28.9 22 Sur 34 Sur 0 -- -- 19
2019-06-17 19:00:00 30.2 20 Sur 33 Sur 0 -- -- 19
2019-06-17 18:00:00 30.9 18 Sur 32 Sudeste 0 -- -- 19
2019-06-17 17:00:00 30.4 21 Sur 34 Sur 0 -- -- 21
2019-06-17 16:00:00 30.1 20 Sur 36 Sudeste 0 -- -- 22
2019-06-17 15:00:00 29.9 19 Sudeste 33 Sudeste 0 -- -- 22
2019-06-17 14:00:00 28.5 19 Sur 33 Sur 0 -- -- 24
2019-06-17 13:00:00 27.5 17 Sur 28 Sudoeste 0 -- -- 25
2019-06-17 12:00:00 24.2 8 Oeste 14 Oeste 0 -- -- 35
2019-06-17 11:00:00 22.3 8 Sudoeste 12 Sudoeste 0 -- -- 45
2019-06-17 10:00:00 19.1 2 Sur 6 Sudoeste 0 -- -- 54
2019-06-17 09:00:00 15.6 3 Sudoeste 5 Sudoeste 0 -- -- 66
2019-06-17 08:00:00 11.7 0 Calma 6 Nordeste 0 -- -- 71
2019-06-17 07:00:00 10.3 4 Norte 8 Nordeste 0 -- -- 67
2019-06-17 06:00:00 11.5 5 Nordeste 7 Nordeste 0 -- -- 63
2019-06-17 05:00:00 11.9 0 Calma 4 Nordeste 0 -- -- 59
2019-06-17 04:00:00 14.7 0 Calma 4 Norte 0 -- -- 56
2019-06-17 03:00:00 15.4 2 Norte 12 Sudoeste 0 -- -- 52
2019-06-17 02:00:00 16.6 6 Sur 15 Sur 0 -- -- 55
2019-06-17 01:00:00 18.3 11 Sur 18 Sur 0 -- -- 46
2019-06-17 00:00:00 18.7 9 Sudoeste 21 Sudoeste 0 -- -- 45
2019-06-16 23:00:00 19.3 8 Sur 15 Sudoeste 0 -- -- 44
2019-06-16 22:00:00 21.1 13 Sur 27 Sur 0 -- -- 39
2019-06-16 21:00:00 23.4 19 Sur 35 Sur 0 -- -- 36
2019-06-16 20:00:00 24.8 24 Sur 37 Sur 0 -- -- 32
2019-06-16 19:00:00 26.3 27 Sur 40 Sur 0 -- -- 28
2019-06-16 18:00:00 27.2 23 Sur 35 Sur 0 -- -- 23
2019-06-16 17:00:00 27.2 25 Sur 38 Sur 0 -- -- 25
2019-06-16 16:00:00 27.3 29 Sur 44 Sur 0 -- -- 21
2019-06-16 15:00:00 26.7 23 Sur 38 Sur 0 -- -- 25
2019-06-16 14:00:00 25.9 24 Sur 37 Sur 0 -- -- 27
2019-06-16 13:00:00 25.3 28 Sur 39 Sur 0 -- -- 28
2019-06-16 12:00:00 24 19 Sur 29 Sur 0 -- -- 32
2019-06-16 11:00:00 23.9 9 Sudeste 16 Sudoeste 0 -- -- 33
2019-06-16 10:00:00 20.1 9 Sudoeste 14 Sudoeste 0 -- -- 49
2019-06-16 09:00:00 16.9 5 Sur 10 Sur 0 -- -- 54
2019-06-16 08:00:00 13.3 2 Sudeste 4 Sur 0 -- -- 60
2019-06-16 07:00:00 11.9 3 Norte 10 Sur 0 -- -- 60
2019-06-16 06:00:00 12.3 7 Sur 9 Sur 0 -- -- 61
2019-06-16 05:00:00 13.3 3 Sur 4 Sur 0 -- -- 58
2019-06-16 04:00:00 14.6 0 Calma 7 Nordeste 0 -- -- 50
2019-06-16 03:00:00 16.4 5 Norte 9 Norte 0 -- -- 47
2019-06-16 02:00:00 18 8 Norte 10 Norte 0 -- -- 42
2019-06-16 01:00:00 19.1 5 Norte 9 Norte 0 -- -- 39
2019-06-16 00:00:00 20.2 3 Nordeste 6 Nordeste 0 -- -- 36
2019-06-15 23:00:00 21.5 4 Norte 9 Noroeste 0 -- -- 30
2019-06-15 22:00:00 22.9 8 Noroeste 14 Noroeste 0 -- -- 28
2019-06-15 21:00:00 25.9 10 Noroeste 19 Noroeste 0 -- -- 25
2019-06-15 20:00:00 28 9 Noroeste 19 Oeste 0 -- -- 22
2019-06-15 19:00:00 28.1 10 Norte 20 Nordeste 0 -- -- 24
2019-06-15 18:00:00 27.6 10 Norte 28 Noroeste 0 -- -- 24
2019-06-15 17:00:00 27.5 8 Norte 24 Noroeste 0 -- -- 24
2019-06-15 16:00:00 26.5 11 Norte 25 Noroeste 0 -- -- 27
2019-06-15 15:00:00 25.4 13 Norte 23 Noroeste 0 -- -- 28
2019-06-15 14:00:00 24.5 9 Norte 22 Norte 0 -- -- 31
2019-06-15 13:00:00 22.6 10 Noroeste 24 Noroeste 0 -- -- 36
2019-06-15 12:00:00 21.2 13 Norte 23 Norte 0 -- -- 40
2019-06-15 11:00:00 19.6 15 Norte 24 Norte 0 -- -- 44
2019-06-15 10:00:00 17.7 14 Nordeste 20 Nordeste 0 -- -- 52
2019-06-15 09:00:00 14.9 4 Norte 9 Norte 0 -- -- 63
2019-06-15 08:00:00 10.5 2 Norte 4 Noroeste 0 -- -- 73
2019-06-15 07:00:00 9.9 0 Calma 6 Norte 0 -- -- 77
2019-06-15 06:00:00 10.2 5 Norte 7 Nordeste 0 -- -- 74
2019-06-15 05:00:00 10.2 6 Norte 10 Nordeste 0 -- -- 73
2019-06-15 04:00:00 11.9 5 Este 9 Este 0 -- -- 70
2019-06-15 03:00:00 12.4 5 Sudeste 9 Nordeste 0 -- -- 69
2019-06-15 02:00:00 13.1 5 Nordeste 10 Noroeste 0 -- -- 65
2019-06-15 01:00:00 15.2 8 Noroeste 12 Noroeste 0 -- -- 57
2019-06-15 00:00:00 16 4 Noroeste 22 Oeste 0 -- -- 54
2019-06-14 23:00:00 17.2 12 Oeste 30 Oeste 0 -- -- 51
2019-06-14 22:00:00 18.4 13 Oeste 31 Oeste 0 -- -- 48
2019-06-14 21:00:00 20.3 21 Oeste 34 Oeste 0 -- -- 40
2019-06-14 20:00:00 21.4 18 Oeste 33 Oeste 0 -- -- 38
2019-06-14 19:00:00 21.5 19 Oeste 39 Oeste 0 -- -- 35
2019-06-14 18:00:00 21.8 22 Oeste 40 Oeste 0 -- -- 33
2019-06-14 17:00:00 21.9 23 Oeste 42 Oeste 0 -- -- 34
2019-06-14 16:00:00 21.9 18 Oeste 38 Oeste 0 -- -- 38
2019-06-14 15:00:00 21.5 18 Noroeste 36 Oeste 0 -- -- 42
2019-06-14 14:00:00 21 14 Oeste 36 Oeste 0 -- -- 42
2019-06-14 13:00:00 20.3 23 Oeste 39 Oeste 0 -- -- 42
2019-06-14 12:00:00 19.8 20 Oeste 39 Oeste 0 -- -- 45
2019-06-14 11:00:00 19.4 14 Oeste 27 Sudoeste 0 -- -- 44
2019-06-14 10:00:00 18.1 16 Oeste 25 Oeste 0 -- -- 53
2019-06-14 09:00:00 17.3 8 Sudoeste 13 Sudoeste 0 -- -- 70
2019-06-14 08:00:00 15.4 3 Sur 5 Sur 0 -- -- 83
2019-06-14 07:00:00 14.3 2 Sur 9 Sudeste 0 -- -- 85
2019-06-14 06:00:00 15.5 3 Sur 7 Norte 0 -- -- 83
2019-06-14 05:00:00 17 3 Sudeste 15 Sudoeste 0 -- -- 80
2019-06-14 04:00:00 18 10 Sudoeste 19 Sur 0 -- -- 77
2019-06-14 03:00:00 18.1 13 Sur 21 Sur 0 -- -- 73
2019-06-14 02:00:00 18.9 12 Sur 23 Sudoeste 0 -- -- 69
2019-06-14 01:00:00 19.3 10 Sur 24 Sur 0 -- -- 66
2019-06-14 00:00:00 20.1 14 Sur 30 Sudoeste 0 -- -- 63
2019-06-13 23:00:00 21.5 12 Oeste 25 Sudoeste 0 -- -- 49
2019-06-13 22:00:00 22.6 15 Sudoeste 27 Oeste 0 -- -- 49
2019-06-13 21:00:00 23.5 19 Sudoeste 27 Sur 0 -- -- 54
2019-06-13 20:00:00 24.8 17 Sur 30 Sur 0 -- -- 46
2019-06-13 19:00:00 26.5 18 Sur 31 Sudeste 0 -- -- 42
2019-06-13 18:00:00 27.4 9 Oeste 24 Sudoeste 0 -- -- 39
2019-06-13 17:00:00 27.1 9 Sudoeste 27 Sur 0 -- -- 39
2019-06-13 16:00:00 26.3 16 Sur 32 Sur 0 -- -- 41
2019-06-13 15:00:00 24.9 14 Sur 35 Sudoeste 0 -- -- 47
2019-06-13 14:00:00 24.7 19 Sur 39 Sur 0 -- -- 46
2019-06-13 13:00:00 23.7 20 Sur 39 Sur 0 -- -- 49
2019-06-13 12:00:00 22.3 26 Sur 36 Sur 0 -- -- 54
2019-06-13 11:00:00 19.8 7 Sur 15 Sudoeste 0 -- -- 68
2019-06-13 10:00:00 18.1 7 Sudoeste 14 Sudeste 0 -- -- 72
2019-06-13 09:00:00 17.4 9 Sur 13 Sur 0 -- -- 74
2019-06-13 08:00:00 15 3 Sur 8 Sur 0 -- -- 83
2019-06-13 07:00:00 14.1 7 Sur 11 Sur 0 -- -- 84
2019-06-13 06:00:00 14.5 4 Sur 13 Sudoeste 0 -- -- 84
2019-06-13 05:00:00 15.8 6 Oeste 18 Sudoeste 0 -- -- 82
2019-06-13 04:00:00 15.8 12 Sudoeste 27 Sur 0 -- -- 80
2019-06-13 03:00:00 15.9 16 Sur 27 Sur 0 -- -- 79
2019-06-13 02:00:00 16.3 16 Sur 29 Sudoeste 0 -- -- 75
2019-06-13 01:00:00 16.7 16 Sur 31 Sur 0 -- -- 73
2019-06-13 00:00:00 17.5 17 Sur 33 Sur 0 -- -- 67
2019-06-12 23:00:00 18.4 18 Sur 32 Sur 0 -- -- 64
2019-06-12 22:00:00 19.8 18 Sur 25 Sur 0 -- -- 58
2019-06-12 21:00:00 21.9 18 Sur 29 Sur 0 -- -- 51
2019-06-12 20:00:00 22.8 22 Sur 35 Sur 0 -- -- 47
2019-06-12 19:00:00 23.5 29 Sur 39 Sur 0 -- -- 44
2019-06-12 18:00:00 24.5 29 Sur 40 Sur 0 -- -- 42
2019-06-12 17:00:00 25 25 Sur 36 Sur 0 -- -- 39
2019-06-12 16:00:00 24.9 24 Sur 41 Sur 0 -- -- 39
2019-06-12 15:00:00 25 22 Sur 39 Sudoeste 0 -- -- 38
2019-06-12 14:00:00 24.4 24 Sur 39 Sur 0 -- -- 40
2019-06-12 13:00:00 23.5 26 Sur 45 Sur 0 -- -- 44
2019-06-12 12:00:00 22.1 31 Sur 44 Sur 0 -- -- 49
2019-06-12 11:00:00 20.8 29 Sur 46 Sur 0 -- -- 57
2019-06-12 10:00:00 19.5 30 Sur 41 Sur 0 -- -- 64
2019-06-12 09:00:00 18.5 20 Sur 33 Sur 0 -- -- 69
2019-06-12 08:00:00 16.4 14 Sur 22 Sur 0 -- -- 81
2019-06-12 07:00:00 14.4 7 Sur 9 Sur 0 -- -- 84
2019-06-12 06:00:00 14.1 3 Sur 7 Sudoeste 0 -- -- 77
2019-06-12 05:00:00 14.2 2 Sur 13 Sur 0 -- -- 72
2019-06-12 04:00:00 14.2 5 Sur 14 Sur 0 -- -- 74
2019-06-12 03:00:00 15.1 3 Norte 6 Norte 0 -- -- 64
2019-06-12 02:00:00 16.5 4 Este 14 Sudoeste 0 -- -- 61
2019-06-12 01:00:00 18.1 4 Sudoeste 15 Sur 0 -- -- 61
2019-06-12 00:00:00 18.9 6 Noroeste 15 Oeste 0 -- -- 55
2019-06-11 23:00:00 20.3 12 Oeste 25 Oeste 0 -- -- 50
2019-06-11 22:00:00 22.5 15 Noroeste 32 Oeste 0 -- -- 41
2019-06-11 21:00:00 25.5 15 Noroeste 31 Noroeste 0 -- -- 26
2019-06-11 20:00:00 26.6 17 Noroeste 36 Noroeste 0 -- -- 25
2019-06-11 19:00:00 26.6 21 Noroeste 39 Noroeste 0 -- -- 29
2019-06-11 18:00:00 26.3 14 Noroeste 37 Noroeste 0 -- -- 30
2019-06-11 17:00:00 25.9 14 Oeste 35 Oeste 0 -- -- 30
2019-06-11 16:00:00 25.3 23 Noroeste 40 Noroeste 0 -- -- 30
2019-06-11 15:00:00 24.5 13 Noroeste 29 Noroeste 0 -- -- 32
2019-06-11 14:00:00 23.5 15 Noroeste 36 Noroeste 0 -- -- 34
2019-06-11 13:00:00 22.7 20 Noroeste 39 Noroeste 0 -- -- 34
2019-06-11 12:00:00 21.6 15 Noroeste 24 Noroeste 0 -- -- 34
2019-06-11 11:00:00 20.3 6 Norte 17 Norte 0 -- -- 49
2019-06-11 10:00:00 19.7 9 Norte 19 Noroeste 0 -- -- 52
2019-06-11 09:00:00 15.7 2 Oeste 10 Noroeste 0 -- -- 67
2019-06-11 08:00:00 12.9 3 Sudeste 5 Sudeste 0 -- -- 72
2019-06-11 07:00:00 10.7 0 Calma 6 Noroeste 0 -- -- 73
2019-06-11 06:00:00 11.5 0 Calma 6 Noroeste 0 -- -- 71
2019-06-11 05:00:00 13 3 Nordeste 10 Norte 0 -- -- 71
2019-06-11 04:00:00 12.7 6 Norte 10 Norte 0 -- -- 66
2019-06-11 03:00:00 14.7 2 Sudeste 6 Sudeste 0 -- -- 64
2019-06-11 02:00:00 16.1 3 Noroeste 6 Noroeste 0 -- -- 58
2019-06-11 01:00:00 17.2 6 Norte 27 Oeste 0 -- -- 53
2019-06-11 00:00:00 18 10 Sur 28 Oeste 0 -- -- 48
2019-06-10 23:00:00 19.2 20 Oeste 34 Noroeste 0 -- -- 47
2019-06-10 22:00:00 20.9 18 Oeste 40 Oeste 0 -- -- 42
2019-06-10 21:00:00 24.3 18 Oeste 32 Oeste 0 -- -- 33
2019-06-10 20:00:00 26.2 15 Noroeste 36 Noroeste 0 -- -- 25
2019-06-10 19:00:00 26.3 14 Noroeste 32 Oeste 0 -- -- 24
2019-06-10 18:00:00 26.3 17 Noroeste 36 Oeste 0 -- -- 24
2019-06-10 17:00:00 25.7 18 Noroeste 38 Noroeste 0 -- -- 24
2019-06-10 16:00:00 25.4 17 Oeste 36 Norte 0 -- -- 25
2019-06-10 15:00:00 24.4 16 Noroeste 32 Noroeste 0 -- -- 29
2019-06-10 14:00:00 23.7 18 Noroeste 34 Noroeste 0 -- -- 29
2019-06-10 13:00:00 22.9 12 Noroeste 30 Noroeste 0 -- -- 33
2019-06-10 12:00:00 21.6 14 Noroeste 26 Noroeste 0 -- -- 41
2019-06-10 11:00:00 20.4 8 Sudoeste 13 Oeste 0 -- -- 49
2019-06-10 10:00:00 19.3 8 Noroeste 17 Noroeste 0 -- -- 50
2019-06-10 09:00:00 16.9 2 Sudoeste 6 Noroeste 0 -- -- 60
2019-06-10 08:00:00 15.3 0 Calma 9 Norte 0 -- -- 63
2019-06-10 07:00:00 14 8 Norte 19 Noroeste 0 -- -- 67
2019-06-10 06:00:00 15.5 8 Noroeste 21 Oeste 0 -- -- 63
2019-06-10 05:00:00 14.8 10 Noroeste 19 Noroeste 0 -- -- 64
2019-06-10 04:00:00 14.6 7 Norte 12 Nordeste 0 -- -- 59
2019-06-10 03:00:00 16.8 6 Oeste 13 Oeste 0 -- -- 55
2019-06-10 02:00:00 17.5 9 Oeste 23 Oeste 0 -- -- 51
2019-06-10 01:00:00 18.8 17 Oeste 33 Oeste 0 -- -- 45
2019-06-10 00:00:00 19.1 8 Noroeste 24 Oeste 0 -- -- 39
2019-06-09 23:00:00 20.2 8 Sudoeste 27 Sudoeste 0 -- -- 39
2019-06-09 22:00:00 21.4 18 Sudoeste 40 Oeste 0 -- -- 37
2019-06-09 21:00:00 24.2 24 Oeste 35 Oeste 0 -- -- 28
2019-06-09 20:00:00 25.7 18 Oeste 37 Oeste 0 -- -- 26
2019-06-09 19:00:00 26.1 20 Oeste 37 Oeste 0 -- -- 26
2019-06-09 18:00:00 26.3 20 Noroeste 35 Noroeste 0 -- -- 27
2019-06-09 17:00:00 26.4 17 Oeste 33 Noroeste 0 -- -- 32
2019-06-09 16:00:00 26 15 Oeste 33 Noroeste 0 -- -- 35
2019-06-09 15:00:00 25.9 12 Oeste 28 Noroeste 0 -- -- 39
2019-06-09 14:00:00 24.6 13 Noroeste 27 Oeste 0 -- -- 41
2019-06-09 13:00:00 24.5 12 Oeste 30 Oeste 0 -- -- 44
2019-06-09 12:00:00 23.1 6 Sur 10 Sur 0 -- -- 52
2019-06-09 11:00:00 20.6 4 Sudoeste 10 Sudoeste 0 -- -- 65
2019-06-09 10:00:00 18.6 4 Oeste 6 Oeste 0 -- -- 77
2019-06-09 09:00:00 17.3 0 Calma 5 Sur 0 -- -- 83
2019-06-09 08:00:00 16.1 2 Sudoeste 8 Sur 0 -- -- 85
2019-06-09 07:00:00 16.7 6 Sudoeste 9 Sur 0 -- -- 85
2019-06-09 06:00:00 16.7 3 Noroeste 13 Sur 0 -- -- 83
2019-06-09 05:00:00 17.5 8 Sudoeste 20 Sur 0 -- -- 82
2019-06-09 04:00:00 17.6 15 Sur 23 Sur 0 -- -- 82
2019-06-09 03:00:00 17.8 14 Sur 26 Sur 0 -- -- 80
2019-06-09 02:00:00 17.9 13 Sur 27 Sur 0 -- -- 78
2019-06-09 01:00:00 18.2 16 Sur 27 Sur 0 -- -- 77
2019-06-09 00:00:00 18.9 12 Sur 26 Sudoeste 0 -- -- 72
2019-06-08 23:00:00 19.6 17 Sur 30 Sudoeste 0 -- -- 66
2019-06-08 22:00:00 20.3 14 Sur 25 Sudoeste 0 -- -- 57
2019-06-08 21:00:00 22.1 15 Sur 39 Sur 0 -- -- 50
2019-06-08 20:00:00 22.5 31 Sur 42 Sur 0 -- -- 49
2019-06-08 19:00:00 23.5 27 Sur 47 Sur 0 -- -- 44
2019-06-08 18:00:00 25 31 Sur 49 Sudeste 0 -- -- 42
2019-06-08 17:00:00 25.1 35 Sur 49 Sur 0 -- -- 37
2019-06-08 16:00:00 26.2 32 Sur 52 Sur 0 -- -- 36
2019-06-08 15:00:00 26.1 32 Sur 50 Sur 0 -- -- 32
2019-06-08 14:00:00 25 30 Sur 48 Sur 0 -- -- 36
2019-06-08 13:00:00 24.9 33 Sur 47 Sur 0 -- -- 37
2019-06-08 12:00:00 25.2 28 Sur 42 Sur 0 -- -- 38
2019-06-08 11:00:00 23.6 11 Sur 17 Sur 0 -- -- 41
2019-06-08 10:00:00 19 4 Sudoeste 9 Sudoeste 0 -- -- 44
2019-06-08 09:00:00 15.7 4 Sudoeste 7 Sur 0 -- -- 54
2019-06-08 08:00:00 12.1 2 Sur 6 Norte 0 -- -- 57
2019-06-08 07:00:00 9.6 3 Oeste 4 Sur 0 -- -- 57
2019-06-08 06:00:00 11 0 Calma 4 Sur 0 -- -- 62
2019-06-08 05:00:00 12.9 3 Sur 5 Sudeste 0 -- -- 48
2019-06-08 04:00:00 12.9 2 Sur 11 Norte 0 -- -- 50
2019-06-08 03:00:00 14.5 6 Norte 10 Norte 0 -- -- 51
2019-06-08 02:00:00 14.1 0 Calma 12 Norte 0 -- -- 44
2019-06-08 01:00:00 15.7 3 Nordeste 11 Norte 0 -- -- 39
2019-06-08 00:00:00 17 4 Norte 8 Noroeste 0 -- -- 33
2019-06-07 23:00:00 17.8 7 Noroeste 10 Noroeste 0 -- -- 30
2019-06-07 22:00:00 20.1 10 Noroeste 13 Noroeste 0 -- -- 26
2019-06-07 21:00:00 23.6 10 Noroeste 20 Noroeste 0 -- -- 21
2019-06-07 20:00:00 25.1 8 Norte 22 Noroeste 0 -- -- 20
2019-06-07 19:00:00 25.1 11 Norte 25 Noroeste 0 -- -- 23
2019-06-07 18:00:00 25.4 11 Norte 27 Nordeste 0 -- -- 25
2019-06-07 17:00:00 24.8 12 Noroeste 23 Noroeste 0 -- -- 28
2019-06-07 16:00:00 24 9 Norte 23 Norte 0 -- -- 38
2019-06-07 15:00:00 22.2 10 Norte 21 Norte 0 -- -- 44
2019-06-07 14:00:00 20.7 5 Noroeste 18 Nordeste 0 -- -- 55
2019-06-07 13:00:00 18.2 8 Nordeste 19 Nordeste 0 -- -- 66
2019-06-07 12:00:00 17.6 13 Nordeste 22 Nordeste 0 -- -- 69
2019-06-07 11:00:00 17.1 13 Norte 25 Noroeste 0 -- -- 71
2019-06-07 10:00:00 17 13 Norte 20 Norte 0 -- -- 75
2019-06-07 09:00:00 15.6 6 Noroeste 13 Oeste 0 -- -- 79
2019-06-07 08:00:00 14.9 7 Noroeste 18 Oeste 0 -- -- 80
2019-06-07 07:00:00 14.4 11 Oeste 21 Oeste 0 -- -- 81
2019-06-07 06:00:00 14 5 Oeste 19 Oeste 0 -- -- 80
2019-06-07 05:00:00 13.8 9 Oeste 14 Oeste 0 -- -- 78
2019-06-07 04:00:00 14.4 5 Noroeste 19 Oeste 0 -- -- 72
2019-06-07 03:00:00 14.5 5 Sudoeste 19 Sudoeste 0 -- -- 65
2019-06-07 02:00:00 15 5 Oeste 16 Oeste 0 -- -- 61
2019-06-07 01:00:00 15 8 Noroeste 13 Noroeste 0 -- -- 59
2019-06-07 00:00:00 16.3 10 Sudeste 23 Oeste 0 -- -- 51
2019-06-06 23:00:00 17.6 14 Oeste 33 Oeste 0 -- -- 42
2019-06-06 22:00:00 19.3 14 Oeste 36 Noroeste 0 -- -- 31
2019-06-06 21:00:00 21.7 23 Oeste 44 Oeste 0 -- -- 26
2019-06-06 20:00:00 23.8 26 Oeste 46 Oeste 0 -- -- 31
2019-06-06 19:00:00 25.1 23 Noroeste 41 Noroeste 0 -- -- 27
2019-06-06 18:00:00 26.9 17 Oeste 35 Noroeste 0 -- -- 24
2019-06-06 17:00:00 26.8 20 Noroeste 35 Noroeste 0 -- -- 24
2019-06-06 16:00:00 27.5 8 Sudoeste 17 Sudoeste 0 -- -- 22
2019-06-06 15:00:00 25.8 6 Oeste 24 Sudoeste 0 -- -- 23
2019-06-06 14:00:00 24.6 8 Sudoeste 10 Sudoeste 0 -- -- 25
2019-06-06 13:00:00 22.6 6 Sudoeste 10 Sudoeste 0 -- -- 30
2019-06-06 12:00:00 20.7 7 Sudoeste 10 Sudoeste 0 -- -- 38
2019-06-06 11:00:00 18.4 7 Sudoeste 10 Sudoeste 0 -- -- 47
2019-06-06 10:00:00 16.6 4 Sudoeste 7 Sudoeste 0 -- -- 49
2019-06-06 09:00:00 14.8 3 Sudoeste 5 Sudoeste 0 -- -- 61
2019-06-06 08:00:00 11.5 4 Sudeste 9 Norte 0 -- -- 73
2019-06-06 07:00:00 10.4 4 Norte 10 Norte 0 -- -- 70
2019-06-06 06:00:00 10.5 4 Norte 8 Norte 0 -- -- 70
2019-06-06 05:00:00 11.9 3 Sudeste 5 Norte 0 -- -- 71
2019-06-06 04:00:00 14.1 0 Calma 17 Sur 0 -- -- 58
2019-06-06 03:00:00 15.5 6 Oeste 17 Oeste 0 -- -- 56
2019-06-06 02:00:00 15.6 10 Noroeste 22 Oeste 0 -- -- 56
2019-06-06 01:00:00 15.7 14 Oeste 19 Oeste 0 -- -- 58
2019-06-06 00:00:00 16.7 12 Noroeste 24 Oeste 0 -- -- 54
2019-06-05 23:00:00 17.7 12 Oeste 21 Oeste 0 -- -- 52
2019-06-05 22:00:00 19.3 15 Noroeste 24 Noroeste 0 -- -- 40
2019-06-05 21:00:00 21.6 15 Noroeste 28 Norte 0 -- -- 28
2019-06-05 20:00:00 22.7 19 Noroeste 34 Noroeste 0 -- -- 25
2019-06-05 19:00:00 22.6 24 Noroeste 38 Noroeste 0 -- -- 25
2019-06-05 18:00:00 23.1 19 Noroeste 36 Noroeste 0 -- -- 27
2019-06-05 17:00:00 23 19 Noroeste 39 Noroeste 0 -- -- 27
2019-06-05 16:00:00 22.2 22 Noroeste 41 Noroeste 0 -- -- 30
2019-06-05 15:00:00 21.6 19 Noroeste 35 Norte 0 -- -- 33
2019-06-05 14:00:00 20.4 20 Norte 33 Noroeste 0 -- -- 35
2019-06-05 13:00:00 19.4 16 Noroeste 36 Oeste 0 -- -- 38
2019-06-05 12:00:00 17.9 20 Noroeste 34 Noroeste 0 -- -- 43
2019-06-05 11:00:00 16.5 20 Noroeste 31 Noroeste 0 -- -- 44
2019-06-05 10:00:00 15.5 19 Noroeste 34 Oeste 0 -- -- 50
2019-06-05 09:00:00 14.6 21 Noroeste 32 Noroeste 0 -- -- 53
2019-06-05 08:00:00 13.8 18 Noroeste 30 Noroeste 0 -- -- 54
2019-06-05 07:00:00 13.7 10 Noroeste 29 Oeste 0 -- -- 52
2019-06-05 06:00:00 15.5 25 Noroeste 36 Noroeste 0 -- -- 48
2019-06-05 05:00:00 17.1 19 Noroeste 33 Oeste 0 -- -- 60
2019-06-05 04:00:00 17.9 18 Oeste 30 Oeste 0 -- -- 65
2019-06-05 03:00:00 17.9 17 Oeste 36 Oeste 0 -- -- 74
2019-06-05 02:00:00 18.4 6 Oeste 27 Oeste 0 -- -- 70
2019-06-05 01:00:00 19.3 14 Oeste 30 Oeste 0 -- -- 67
2019-06-05 00:00:00 19.7 19 Sudoeste 27 Oeste 0 -- -- 65
2019-06-04 23:00:00 21.2 9 Oeste 30 Sudoeste 0 -- -- 57
2019-06-04 22:00:00 22.6 22 Oeste 35 Oeste 0 -- -- 50
2019-06-04 21:00:00 25 19 Oeste 38 Oeste 0 -- -- 41
2019-06-04 20:00:00 27.4 23 Oeste 41 Oeste 0 -- -- 37
2019-06-04 19:00:00 28.7 24 Oeste 44 Oeste 0 -- -- 33
2019-06-04 18:00:00 29.6 25 Oeste 41 Oeste 0 -- -- 32
2019-06-04 17:00:00 30.1 21 Oeste 41 Oeste 0 -- -- 31
2019-06-04 16:00:00 30.2 19 Oeste 37 Noroeste 0 -- -- 27
2019-06-04 15:00:00 29.7 20 Oeste 38 Noroeste 0 -- -- 29
2019-06-04 14:00:00 29.3 18 Oeste 36 Oeste 0 -- -- 25
2019-06-04 13:00:00 28.6 17 Noroeste 31 Oeste 0 -- -- 21
2019-06-04 12:00:00 27.8 4 Sudoeste 10 Sur 0 -- -- 23
2019-06-04 11:00:00 24.8 3 Sudoeste 5 Sudoeste 0 -- -- 29
2019-06-04 10:00:00 20.4 2 Sudoeste 6 Oeste 0 -- -- 45
2019-06-04 09:00:00 17.4 3 Sudoeste 5 Sudoeste 0 -- -- 61
2019-06-04 08:00:00 14.7 3 Sudeste 5 Sudeste 0 -- -- 55
2019-06-04 07:00:00 13.8 0 Calma 5 Noroeste 0 -- -- 59
2019-06-04 06:00:00 12.7 6 Norte 9 Noroeste 0 -- -- 60
2019-06-04 05:00:00 13.6 0 Calma 12 Este 0 -- -- 52
2019-06-04 04:00:00 15.7 6 Nordeste 8 Nordeste 0 -- -- 49
2019-06-04 03:00:00 16.8 0 Calma 8 Sur 0 -- -- 47
2019-06-04 02:00:00 18 7 Sur 12 Sur 0 -- -- 43
2019-06-04 01:00:00 19.3 8 Sudoeste 12 Sur 0 -- -- 40
2019-06-04 00:00:00 19.8 9 Sur 13 Sur 0 -- -- 38
2019-06-03 23:00:00 21.5 8 Sur 13 Sur 0 -- -- 35
2019-06-03 22:00:00 23.7 9 Sur 17 Sur 0 -- -- 26
2019-06-03 21:00:00 27.3 14 Sur 25 Sur 0 -- -- 21
2019-06-03 20:00:00 29.6 19 Sur 35 Sur 0 -- -- 19
2019-06-03 19:00:00 30.8 25 Sur 35 Sudeste 0 -- -- 17
2019-06-03 18:00:00 32.3 21 Sur 31 Sur 0 -- -- 16
2019-06-03 17:00:00 32.4 19 Sur 32 Sur 0 -- -- 15
2019-06-03 16:00:00 32.6 18 Sur 31 Sur 0 -- -- 15
2019-06-03 15:00:00 31.9 17 Sur 28 Sur 0 -- -- 18
2019-06-03 14:00:00 31.5 13 Sur 25 Sur 0 -- -- 19
2019-06-03 13:00:00 29.8 13 Sur 22 Sudoeste 0 -- -- 22
2019-06-03 12:00:00 28.2 11 Sur 19 Sur 0 -- -- 25
2019-06-03 11:00:00 23.5 10 Sudoeste 15 Sudoeste 0 -- -- 35
2019-06-03 10:00:00 20.3 4 Sudoeste 6 Sudoeste 0 -- -- 43
2019-06-03 09:00:00 17.6 4 Oeste 6 Oeste 0 -- -- 50
2019-06-03 08:00:00 14.1 4 Oeste 5 Oeste 0 -- -- 52
2019-06-03 07:00:00 13.1 2 Sudeste 9 Sudeste 0 -- -- 54
2019-06-03 06:00:00 14.9 4 Norte 10 Oeste 0 -- -- 43
2019-06-03 05:00:00 16.2 0 Calma 8 Norte 0 -- -- 40
2019-06-03 04:00:00 16.6 4 Oeste 13 Noroeste 0 -- -- 40
2019-06-03 03:00:00 18.5 7 Oeste 22 Sur 0 -- -- 38
2019-06-03 02:00:00 19.1 13 Sur 23 Sudoeste 0 -- -- 36
2019-06-03 01:00:00 19 9 Sudoeste 22 Sur 0 -- -- 42
2019-06-03 00:00:00 19.7 15 Sur 21 Sur 0 -- -- 37
2019-06-02 23:00:00 20 13 Sur 21 Sur 0 -- -- 39
2019-06-02 22:00:00 21.9 14 Sur 24 Sudoeste 0 -- -- 35
2019-06-02 21:00:00 25.1 19 Sur 29 Sur 0 -- -- 29
2019-06-02 20:00:00 26.8 20 Sur 33 Sur 0 -- -- 23
2019-06-02 19:00:00 27.9 22 Sur 38 Sur 0 -- -- 22
2019-06-02 18:00:00 28.2 28 Sur 41 Sur 0 -- -- 21
2019-06-02 17:00:00 29.6 22 Sur 33 Sur 0 -- -- 20
2019-06-02 16:00:00 29.6 16 Sur 31 Sur 0 -- -- 23
2019-06-02 15:00:00 29.4 16 Sur 31 Sur 0 -- -- 22
2019-06-02 14:00:00 28.3 17 Sur 31 Sur 0 -- -- 24
2019-06-02 13:00:00 27 20 Sur 35 Sur 0 -- -- 26
2019-06-02 12:00:00 25.3 22 Sur 36 Sur 0 -- -- 28
2019-06-02 11:00:00 23.9 23 Sur 39 Sur 0 -- -- 30
2019-06-02 10:00:00 22 27 Sur 42 Sur 0 -- -- 32
2019-06-02 09:00:00 20.2 19 Sur 30 Sur 0 -- -- 37
2019-06-02 08:00:00 18.3 18 Sur 28 Sur 0 -- -- 43
2019-06-02 07:00:00 17.4 12 Sur 31 Sur 0 -- -- 48
2019-06-02 06:00:00 17.3 11 Sur 23 Sur 0 -- -- 49
2019-06-02 05:00:00 17.6 18 Sur 32 Sur 0 -- -- 50
2019-06-02 04:00:00 17.3 23 Sur 41 Sur 0 -- -- 52
2019-06-02 03:00:00 17.7 28 Sur 42 Sur 0 -- -- 49
2019-06-02 02:00:00 17.2 9 Sur 21 Sur 0 -- -- 48
2019-06-02 01:00:00 18.1 17 Sur 36 Sur 0 -- -- 46
2019-06-02 00:00:00 18.6 26 Sur 40 Sur 0 -- -- 43
2019-06-01 23:00:00 19 28 Sur 45 Sur 0 -- -- 42
2019-06-01 22:00:00 20.4 31 Sur 48 Sur 0 -- -- 38
2019-06-01 21:00:00 22.1 24 Sur 45 Sur 0 -- -- 34
2019-06-01 20:00:00 23.1 32 Sur 50 Sur 0 -- -- 33
2019-06-01 19:00:00 24.1 35 Sur 55 Sur 0 -- -- 32
2019-06-01 18:00:00 25.2 35 Sur 50 Sur 0 -- -- 31
2019-06-01 17:00:00 25.7 33 Sur 48 Sur 0 -- -- 30
2019-06-01 16:00:00 26.2 33 Sur 46 Sur 0 -- -- 28
2019-06-01 15:00:00 26.4 32 Sur 44 Sur 0 -- -- 27
2019-06-01 14:00:00 26.1 28 Sur 45 Sur 0 -- -- 27
2019-06-01 13:00:00 24.9 29 Sur 42 Sur 0 -- -- 31
2019-06-01 12:00:00 23.7 27 Sur 40 Sur 0 -- -- 38
2019-06-01 11:00:00 22.1 26 Sur 39 Sur 0 -- -- 42
2019-06-01 10:00:00 20 26 Sur 38 Sur 0 -- -- 48
2019-06-01 09:00:00 18.2 20 Sur 31 Sur 0 -- -- 59
2019-06-01 08:00:00 16 15 Sur 28 Sur 0 -- -- 71
2019-06-01 07:00:00 15 19 Sur 27 Sur 0 -- -- 77
2019-06-01 06:00:00 14.9 8 Sur 22 Sur 0 -- -- 74
2019-06-01 05:00:00 15.6 14 Sur 26 Sur 0 -- -- 71
2019-06-01 04:00:00 16.1 15 Sur 27 Sur 0 -- -- 69
2019-06-01 03:00:00 16.7 19 Sur 35 Sur 0 -- -- 68
2019-06-01 02:00:00 17.3 21 Sur 31 Sur 0 -- -- 65
2019-06-01 01:00:00 18.3 18 Sur 31 Sur 0 -- -- 57
2019-06-01 00:00:00 19 14 Sur 31 Sur 0 -- -- 52
2019-05-31 23:00:00 19.8 14 Sur 29 Sudoeste 0 -- -- 49
2019-05-31 22:00:00 20.6 13 Sur 37 Sur 0 -- -- 46
2019-05-31 21:00:00 22.2 19 Sur 36 Sur 0 -- -- 42
2019-05-31 20:00:00 23.9 22 Sur 44 Sur 0 -- -- 37
2019-05-31 19:00:00 24.9 26 Sur 43 Sur 0 -- -- 35
2019-05-31 18:00:00 26.5 27 Sur 44 Sur 0 -- -- 33
2019-05-31 17:00:00 26.7 30 Sur 46 Sur 0 -- -- 32
2019-05-31 16:00:00 26.5 28 Sur 45 Sur 0 -- -- 33
2019-05-31 15:00:00 25.5 33 Sur 51 Sur 0 -- -- 34
2019-05-31 14:00:00 25 31 Sur 47 Sur 0 -- -- 34
2019-05-31 13:00:00 24.6 27 Sur 46 Sur 0 -- -- 37
2019-05-31 12:00:00 22.7 30 Sur 45 Sur 0 -- -- 44
2019-05-31 11:00:00 21.1 25 Sur 36 Sur 0 -- -- 49
2019-05-31 10:00:00 19.1 23 Sur 33 Sur 0 -- -- 57
2019-05-31 09:00:00 17 23 Sur 34 Sur 0 -- -- 65
2019-05-31 08:00:00 15.3 19 Sur 33 Sur 0 -- -- 73
2019-05-31 07:00:00 14.4 20 Sur 31 Sur 0 -- -- 79
2019-05-31 06:00:00 14.5 15 Sur 27 Sur 0 -- -- 77
2019-05-31 05:00:00 14.7 16 Sur 22 Sur 0 -- -- 73
2019-05-31 04:00:00 15.5 20 Sur 27 Sur 0 -- -- 69
2019-05-31 03:00:00 15.5 17 Sur 31 Sur 0 -- -- 65
2019-05-31 02:00:00 15.9 13 Sur 25 Sur 0 -- -- 61
2019-05-31 01:00:00 16.9 15 Sur 29 Sudeste 0 -- -- 53
2019-05-31 00:00:00 16.9 12 Sur 33 Sur 0 -- -- 52
2019-05-30 23:00:00 17.2 17 Sur 35 Sur 0 -- -- 51
2019-05-30 22:00:00 17.7 20 Sur 33 Sur 0 -- -- 54
2019-05-30 21:00:00 19.6 26 Sur 49 Sur 0 -- -- 50
2019-05-30 20:00:00 20.8 34 Sur 53 Sur 0 -- -- 47
2019-05-30 19:00:00 22 32 Sur 51 Sur 0 -- -- 42
2019-05-30 18:00:00 22.5 36 Sur 53 Sur 0 -- -- 42
2019-05-30 17:00:00 23.7 35 Sur 53 Sur 0 -- -- 39
2019-05-30 16:00:00 23.9 34 Sur 50 Sur 0 -- -- 38
2019-05-30 15:00:00 23.7 32 Sur 50 Sur 0 -- -- 40
2019-05-30 14:00:00 23.5 32 Sur 48 Sur 0 -- -- 43
2019-05-30 13:00:00 22.7 31 Sur 46 Sur 0 -- -- 48
2019-05-30 12:00:00 21.5 32 Sur 43 Sur 0 -- -- 51
2019-05-30 11:00:00 20.4 29 Sur 44 Sudeste 0 -- -- 56
2019-05-30 10:00:00 18.9 27 Sur 37 Sur 0 -- -- 62
2019-05-30 09:00:00 17.3 23 Sur 36 Sudeste 0 -- -- 66
2019-05-30 08:00:00 16 22 Sur 34 Sur 0 -- -- 69
2019-05-30 07:00:00 15.2 19 Sur 44 Sur 0 -- -- 73
2019-05-30 06:00:00 15.1 30 Sur 48 Sur 0 -- -- 79
2019-05-30 05:00:00 15.2 26 Sur 38 Sur 0 -- -- 80
2019-05-30 04:00:00 15.5 22 Sur 39 Sur 0 -- -- 81
2019-05-30 03:00:00 15.6 22 Sur 32 Sur 0 -- -- 79
2019-05-30 02:00:00 15.8 16 Sur 24 Sur 0 -- -- 76
2019-05-30 01:00:00 16.5 15 Sur 28 Sur 0 -- -- 70
2019-05-30 00:00:00 17.2 16 Sur 26 Sur 0 -- -- 61
2019-05-29 23:00:00 18.1 19 Sur 30 Sur 0 -- -- 56
2019-05-29 22:00:00 19.9 17 Sur 27 Sur 0 -- -- 51
2019-05-29 21:00:00 23.2 15 Sur 31 Sur 0 -- -- 46
2019-05-29 20:00:00 25.2 22 Sur 33 Sur 0 -- -- 38
2019-05-29 19:00:00 26.7 24 Sur 33 Sur 0 -- -- 35
2019-05-29 18:00:00 27.7 17 Sur 29 Sur 0 -- -- 32
2019-05-29 17:00:00 27.7 18 Sur 32 Sudoeste 0 -- -- 32
2019-05-29 16:00:00 27.2 21 Sur 41 Sur 0 -- -- 32
2019-05-29 15:00:00 26.5 24 Sur 43 Sur 0 -- -- 32
2019-05-29 14:00:00 25.8 29 Sur 43 Sudoeste 0 -- -- 33
2019-05-29 13:00:00 25.4 27 Sur 44 Sur 0 -- -- 36
2019-05-29 12:00:00 24.8 31 Sur 45 Sur 0 -- -- 40
2019-05-29 11:00:00 23.2 25 Sur 39 Sur 0 -- -- 54
2019-05-29 10:00:00 22.2 19 Sudeste 29 Sudeste 0 -- -- 57
2019-05-29 09:00:00 19.9 16 Sur 23 Sur 0 -- -- 69
2019-05-29 08:00:00 17.9 6 Sur 18 Sur 0 -- -- 74
2019-05-29 07:00:00 17 12 Sur 24 Sur 0 -- -- 73
2019-05-29 06:00:00 17.6 12 Sur 23 Sudoeste 0 -- -- 69
2019-05-29 05:00:00 17.9 10 Sur 18 Sur 0 -- -- 67
2019-05-29 04:00:00 18.2 12 Sur 19 Sudoeste 0 -- -- 64
2019-05-29 03:00:00 20.3 5 Sudoeste 10 Nordeste 0 -- -- 52
2019-05-29 02:00:00 20.8 6 Este 10 Sur 0 -- -- 45
2019-05-29 01:00:00 21.8 6 Sudeste 13 Sudeste 0 -- -- 40
2019-05-29 00:00:00 23.4 4 Nordeste 12 Sur 0 -- -- 40
2019-05-28 23:00:00 26.6 6 Sudoeste 24 Sudoeste 0 -- -- 42
2019-05-28 22:00:00 27.8 7 Sudoeste 15 Noroeste 0 -- -- 38
2019-05-28 21:00:00 31.4 8 Noroeste 17 Oeste 0 -- -- 23
2019-05-28 20:00:00 32.6 12 Noroeste 22 Noroeste 0 -- -- 21
2019-05-28 19:00:00 32.8 15 Noroeste 30 Noroeste 0 -- -- 21
2019-05-28 18:00:00 32.9 15 Oeste 29 Noroeste 0 -- -- 23
2019-05-28 17:00:00 33 14 Noroeste 26 Oeste 0 -- -- 21
2019-05-28 16:00:00 32.8 10 Oeste 26 Oeste 0 -- -- 21
2019-05-28 15:00:00 32.4 12 Oeste 28 Noroeste 0 -- -- 18
2019-05-28 14:00:00 31.9 12 Noroeste 26 Noroeste 0 -- -- 20
2019-05-28 13:00:00 31 5 Sudoeste 10 Oeste 0 -- -- 24
2019-05-28 12:00:00 29 5 Sudoeste 9 Sur 0 -- -- 33
2019-05-28 11:00:00 26.2 4 Sudoeste 6 Sudoeste 0 -- -- 37
2019-05-28 10:00:00 23.6 2 Norte 4 Oeste 0 -- -- 47
2019-05-28 09:00:00 19.3 2 Noroeste 5 Oeste 0 -- -- 61
2019-05-28 08:00:00 15.7 2 Sudeste 5 Sudeste 0 -- -- 60
2019-05-28 07:00:00 16.7 0 Calma 9 Norte 0 -- -- 59
2019-05-28 06:00:00 16.3 5 Norte 13 Sur 0 -- -- 59
2019-05-28 05:00:00 18 4 Sudeste 6 Nordeste 0 -- -- 54
2019-05-28 04:00:00 18.7 0 Calma 6 Sudeste 0 -- -- 48
2019-05-28 03:00:00 21.6 3 Sudeste 20 Oeste 0 -- -- 42
2019-05-28 02:00:00 22.4 3 Sudoeste 10 Sur 0 -- -- 37
2019-05-28 01:00:00 22.1 10 Sur 13 Oeste 0 -- -- 40
2019-05-28 00:00:00 25.4 11 Oeste 24 Sudoeste 0 -- -- 36